Makai — WYK759 — position and weather

sailwx.info

Track history (hours):
 
Tides and Currents Weather Stations Pressure Air Temp Water Temp Dewpoint Dewpoint Depression Visibility Wind Speed Wind Dir Waves Ship Positions

Makai

Last reported at 2018-Feb-11 01:13 UTC. Time now 2018-Feb-24 06:03 UTC.
Position N 37°46' W 122°17'.
Warning: this ship's position is 13 days out of date.

Length 19 m.

Type: Pleasure craft. MMSI: 338167897.

Date/timePositionNaut miles runAvg speedWind from/ knotsBaromVisibWave heightAir tempDewpointWater temp
2018-Feb-11 01:13N 37°46' W 122°17'0 0.0
2018-Feb-11 00:55N 37°46' W 122°17'1 2.4
2018-Feb-11 00:30N 37°46' W 122°18'611.4
2018-Feb-11 00:00N 37°49' W 122°24'5 1.5
2018-Feb-10 20:29N 37°52' W 122°30'0 0.6
2018-Feb-10 19:57N 37°52' W 122°29'2 4.1
2018-Feb-10 19:29N 37°51' W 122°27'3 6.8
2018-Feb-10 19:00N 37°49' W 122°24'3 6.7
2018-Feb-10 18:30N 37°47' W 122°20'3 5.8
2018-Feb-10 18:00N 37°46' W 122°17'0 0.7
2018-Feb-10 17:26N 37°46' W 122°17'  
Track history (hours):
 
Tides and Currents Weather Stations Pressure Air Temp Water Temp Dewpoint Dewpoint Depression Visibility Wind Speed Wind Dir Waves Ship Positions

Makai

Last reported at 2018-Feb-11 01:13 UTC. Time now 2018-Feb-24 06:03 UTC.
Position N 37°46' W 122°17'.
Warning: this ship's position is 13 days out of date.

Length 19 m.

Type: Pleasure craft. MMSI: 338167897.

Date/timePositionNaut miles runAvg speedWind from/ knotsBaromVisibWave heightAir tempDewpointWater temp
2018-Feb-11 01:13N 37°46' W 122°17'0 0.0
2018-Feb-11 00:55N 37°46' W 122°17'1 2.4
2018-Feb-11 00:30N 37°46' W 122°18'611.4
2018-Feb-11 00:00N 37°49' W 122°24'5 1.5
2018-Feb-10 20:29N 37°52' W 122°30'0 0.6
2018-Feb-10 19:57N 37°52' W 122°29'2 4.1
2018-Feb-10 19:29N 37°51' W 122°27'3 6.8
2018-Feb-10 19:00N 37°49' W 122°24'3 6.7
2018-Feb-10 18:30N 37°47' W 122°20'3 5.8
2018-Feb-10 18:00N 37°46' W 122°17'0 0.7
2018-Feb-10 17:26N 37°46' W 122°17'  

Dump ship's entire track history